Terminal Aerodrome Forecast
Issued by NWS

Home | Current Version | Previous Version | Text Only | Print | Product List | Glossary On
Versions: 1 2 3 4 5 6 7 8 9 10 11 12 13 14 15 16 17 18
922
FTUS43 KAPX 111739
TAFPLN
TAF
KPLN 111739Z 1118/1218 29007KT P6SM BKN025
      TEMPO 1118/1119 SCT025
     FM112100 28009KT 6SM -SHSN OVC025
     FM120100 27009KT 2SM -SHSN OVC018
     FM121000 29010G17KT 1SM -SHSN OVC016
     FM121400 31014G23KT 3SM -SHSN BLSN OVC026=

USA.gov is the U.S. government's official web portal to all federal, state and local government web resources and services.